createdAt,value
2019-03-18T00:02:11.470Z,99559.41
2019-03-18T00:05:14.798Z,99557.88
2019-03-18T00:08:18.116Z,99556.23
2019-03-18T00:11:21.476Z,99558.27
2019-03-18T00:14:24.790Z,99556.41
2019-03-18T00:17:28.083Z,99571.00
2019-03-18T00:20:31.410Z,99565.61
2019-03-18T00:23:34.731Z,99575.38
2019-03-18T00:26:38.085Z,99583.27
2019-03-18T00:29:41.401Z,99575.20
2019-03-18T00:32:44.684Z,99589.06
2019-03-18T00:35:48.013Z,99595.45
2019-03-18T00:38:51.327Z,99604.20
2019-03-18T00:41:54.678Z,99601.55
2019-03-18T00:44:57.958Z,99611.11
2019-03-18T00:48:01.256Z,99614.78
2019-03-18T00:51:04.574Z,99600.93
2019-03-18T00:54:07.906Z,99614.41
2019-03-18T00:57:11.215Z,99599.33
2019-03-18T01:00:15.771Z,99611.87
2019-03-18T01:03:19.082Z,99614.01
2019-03-18T01:06:22.410Z,99618.13
2019-03-18T01:09:25.823Z,99627.80
2019-03-18T01:12:29.123Z,99627.89
2019-03-18T01:15:32.453Z,99631.58
2019-03-18T01:18:35.763Z,99630.86
2019-03-18T01:21:39.689Z,99621.27
2019-03-18T01:24:42.900Z,99624.74
2019-03-18T01:27:46.272Z,99635.78
2019-03-18T01:30:49.594Z,99635.30
2019-03-18T01:33:52.894Z,99631.44
2019-03-18T01:36:56.201Z,99621.42
2019-03-18T01:39:59.509Z,99626.29
2019-03-18T01:43:02.820Z,99626.00
2019-03-18T01:46:06.125Z,99646.30
2019-03-18T01:49:09.565Z,99647.53
2019-03-18T01:52:12.867Z,99653.11
2019-03-18T01:55:16.190Z,99661.55
2019-03-18T01:58:19.531Z,99663.17
2019-03-18T02:01:22.864Z,99665.73
2019-03-18T02:04:26.154Z,99669.55
2019-03-18T02:07:29.466Z,99660.27
2019-03-18T02:10:32.799Z,99660.68
2019-03-18T02:13:36.139Z,99669.84
2019-03-18T02:16:39.444Z,99675.42
2019-03-18T02:19:42.773Z,99664.50
2019-03-18T02:22:46.085Z,99669.95
2019-03-18T02:25:49.501Z,99667.82
2019-03-18T02:28:52.792Z,99659.77
2019-03-18T02:31:56.101Z,99656.29
2019-03-18T02:34:59.392Z,99653.11
2019-03-18T02:38:02.789Z,99652.24
2019-03-18T02:41:06.079Z,99666.98
2019-03-18T02:44:09.399Z,99671.54
2019-03-18T02:47:12.719Z,99687.20
2019-03-18T02:50:16.019Z,99687.02
2019-03-18T02:53:19.349Z,99696.48
2019-03-18T02:56:22.658Z,99703.23
2019-03-18T02:59:25.962Z,99709.80
2019-03-18T03:02:29.264Z,99705.89
2019-03-18T03:05:32.591Z,99698.67
2019-03-18T03:08:35.942Z,99702.73
2019-03-18T03:11:39.234Z,99707.77
2019-03-18T03:14:42.568Z,99711.00
2019-03-18T03:17:45.903Z,99714.33
2019-03-18T03:20:49.203Z,99727.06
2019-03-18T03:23:52.518Z,99727.09
2019-03-18T03:26:55.815Z,99726.41
2019-03-18T03:29:59.143Z,99726.75
2019-03-18T03:33:02.468Z,99728.10
2019-03-18T03:36:05.768Z,99736.88
2019-03-18T03:39:09.077Z,99751.36
2019-03-18T03:42:12.372Z,99757.13
2019-03-18T03:45:15.683Z,99758.63
2019-03-18T03:48:19.001Z,99760.34
2019-03-18T03:51:22.288Z,99766.20
2019-03-18T03:54:25.595Z,99764.16
2019-03-18T03:57:28.899Z,99772.11
2019-03-18T04:00:32.203Z,99775.80
2019-03-18T04:03:38.666Z,99769.06
2019-03-18T04:06:40.659Z,99772.94
2019-03-18T04:09:44.041Z,99771.62
2019-03-18T04:12:47.334Z,99776.34
2019-03-18T04:15:50.650Z,99769.61
2019-03-18T04:18:54.033Z,99777.06
2019-03-18T04:21:57.307Z,99773.02
2019-03-18T04:25:00.638Z,99771.33
2019-03-18T04:28:03.903Z,99773.02
2019-03-18T04:31:07.213Z,99780.25
2019-03-18T04:34:10.525Z,99778.05
2019-03-18T04:37:13.835Z,99777.41
2019-03-18T04:40:17.156Z,99792.55
2019-03-18T04:43:20.442Z,99779.92
2019-03-18T04:46:23.767Z,99777.73
2019-03-18T04:49:27.082Z,99787.02
2019-03-18T04:52:30.380Z,99785.15
2019-03-18T04:55:33.698Z,99783.14
2019-03-18T04:58:36.982Z,99784.13
2019-03-18T05:01:40.356Z,99788.34
2019-03-18T05:04:43.674Z,99784.48
2019-03-18T05:07:46.966Z,99788.32
2019-03-18T05:10:50.283Z,99780.42
2019-03-18T05:13:53.668Z,99772.20
2019-03-18T05:16:57.151Z,99766.77
2019-03-18T05:20:00.460Z,99761.07
2019-03-18T05:23:03.736Z,99772.84
2019-03-18T05:26:07.056Z,99774.70
2019-03-18T05:29:10.360Z,99783.62
2019-03-18T05:32:13.699Z,99794.22
2019-03-18T05:35:17.015Z,99790.35
2019-03-18T05:38:20.311Z,99794.73
2019-03-18T05:41:23.634Z,99787.51
2019-03-18T05:44:26.922Z,99788.86
2019-03-18T05:47:39.111Z,99792.72
2019-03-18T05:50:35.261Z,99797.77
2019-03-18T05:53:38.699Z,99794.58
2019-03-18T05:56:42.011Z,99798.09
2019-03-18T06:03:55.358Z,99801.43
2019-03-18T06:06:59.303Z,99792.64
2019-03-18T06:28:03.900Z,99818.26
2019-03-18T07:38:53.737Z,99842.36
2019-03-18T07:41:57.036Z,99832.77
2019-03-18T07:45:00.418Z,99847.09
2019-03-18T07:48:06.380Z,99847.72
2019-03-18T07:51:08.736Z,99839.41
2019-03-18T07:54:12.104Z,99849.11
2019-03-18T07:57:15.423Z,99859.32
2019-03-18T08:00:18.751Z,99866.75
2019-03-18T08:03:22.060Z,99861.66
2019-03-18T08:06:25.399Z,99855.57
2019-03-18T08:09:28.833Z,99866.75
2019-03-18T08:12:32.148Z,99880.28
2019-03-18T08:15:35.465Z,99888.89
2019-03-18T08:18:43.526Z,99891.10
2019-03-18T08:21:43.887Z,99906.85
2019-03-18T08:24:47.206Z,99898.53
2019-03-18T08:27:50.619Z,99905.59
2019-03-18T08:30:53.942Z,99910.13
2019-03-18T08:33:57.240Z,99890.87
2019-03-18T08:37:00.537Z,99885.91
2019-03-18T08:40:06.002Z,99893.66
2019-03-18T08:43:09.306Z,99907.02
2019-03-18T08:46:12.647Z,99919.78
2019-03-18T08:49:15.970Z,99909.83
2019-03-18T08:52:19.385Z,99929.77
2019-03-18T08:55:22.697Z,99941.38
2019-03-18T08:58:26.084Z,99950.20
2019-03-18T09:01:29.429Z,99950.51
2019-03-18T09:04:32.739Z,99964.83
2019-03-18T09:07:36.095Z,99962.31
2019-03-18T09:10:39.391Z,99971.41
2019-03-18T09:13:42.730Z,99969.00
2019-03-18T09:16:46.111Z,99971.13
2019-03-18T09:19:49.436Z,99973.84
2019-03-18T09:22:52.747Z,99977.31
2019-03-18T09:25:56.436Z,99973.38
2019-03-18T09:28:59.822Z,99979.69
2019-03-18T09:32:03.144Z,99981.19
2019-03-18T09:35:07.216Z,99996.89
2019-03-18T09:38:10.571Z,99990.85
2019-03-18T09:41:13.924Z,99986.61
2019-03-18T09:44:17.292Z,99992.58
2019-03-18T09:47:20.578Z,99984.41
2019-03-18T09:50:25.718Z,99987.23
2019-03-18T09:53:28.987Z,99991.69
2019-03-18T09:56:32.405Z,99997.04
2019-03-18T09:59:35.788Z,99999.52
2019-03-18T10:02:39.109Z,100003.53
2019-03-18T10:05:43.937Z,99995.39
2019-03-18T10:08:47.584Z,99985.27
2019-03-18T10:11:50.887Z,99978.91
2019-03-18T10:14:54.210Z,99992.95
2019-03-18T10:17:57.496Z,99999.59
2019-03-18T10:21:00.879Z,100008.14
2019-03-18T10:24:04.237Z,100007.58
2019-03-18T10:27:07.530Z,100011.69
2019-03-18T10:30:16.916Z,100013.36
2019-03-18T10:33:20.297Z,100018.86
2019-03-18T10:36:23.616Z,100021.25
2019-03-18T10:39:26.955Z,100019.55
2019-03-18T10:42:30.271Z,100030.39
2019-03-18T10:45:33.582Z,100043.80
2019-03-18T10:48:36.884Z,100027.97
2019-03-18T10:51:40.264Z,100037.20
2019-03-18T10:54:43.570Z,100043.83
2019-03-18T10:57:46.873Z,100030.39
2019-03-18T11:00:50.216Z,100039.66
2019-03-18T11:03:53.481Z,100042.17
2019-03-18T11:06:56.814Z,100041.34
2019-03-18T11:10:00.260Z,100017.83
2019-03-18T11:13:03.712Z,100031.30
2019-03-18T11:16:07.072Z,100037.06
2019-03-18T11:19:10.373Z,100036.30
2019-03-18T11:22:13.687Z,100036.07
2019-03-18T11:25:17.469Z,100031.08
2019-03-18T11:28:20.788Z,100042.56
2019-03-18T11:31:24.183Z,100055.64
2019-03-18T11:34:27.470Z,100047.80
2019-03-18T11:37:30.789Z,100052.15
2019-03-18T11:40:34.084Z,100048.73
2019-03-18T11:43:37.397Z,100042.36
2019-03-18T11:46:40.818Z,100038.98
2019-03-18T11:49:45.725Z,100037.56
2019-03-18T11:52:49.072Z,100025.64
2019-03-18T11:55:52.393Z,100026.37
2019-03-18T11:58:55.683Z,100037.70
2019-03-18T12:01:59.070Z,100043.97
2019-03-18T12:05:02.410Z,100048.20
2019-03-18T12:08:05.706Z,100050.03
2019-03-18T12:11:09.037Z,100048.63
2019-03-18T12:14:12.335Z,100039.87
2019-03-18T12:17:15.648Z,100032.17
2019-03-18T12:20:24.693Z,100038.81
2019-03-18T12:23:23.999Z,100045.52
2019-03-18T12:26:27.309Z,100039.54
2019-03-18T12:29:30.599Z,100020.10
2019-03-18T12:32:33.931Z,100038.11
2019-03-18T12:35:37.263Z,100045.10
2019-03-18T12:38:40.564Z,100045.55
2019-03-18T12:41:43.883Z,100032.77
2019-03-18T12:44:47.171Z,100033.58
2019-03-18T12:47:50.482Z,100042.19
2019-03-18T12:50:56.155Z,100036.73
2019-03-18T12:53:58.831Z,100039.58
2019-03-18T12:57:02.150Z,100035.94
2019-03-18T13:00:18.176Z,100039.94
2019-03-18T13:03:21.481Z,100055.54
2019-03-18T13:06:24.887Z,100044.59
2019-03-18T13:09:28.266Z,100044.99
2019-03-18T13:12:31.585Z,100049.27
2019-03-18T13:15:34.902Z,100031.95
2019-03-18T13:18:38.199Z,100036.52
2019-03-18T13:21:41.520Z,100041.21
2019-03-18T13:24:44.880Z,100033.72
2019-03-18T13:27:48.186Z,100042.31
2019-03-18T13:30:51.497Z,100044.62
2019-03-18T13:33:54.822Z,100053.84
2019-03-18T13:36:58.151Z,100053.08
2019-03-18T13:40:01.455Z,100048.60
2019-03-18T13:43:04.779Z,100047.30
2019-03-18T13:46:08.108Z,100054.23
2019-03-18T13:49:11.414Z,100046.09
2019-03-18T13:52:14.736Z,100060.16
2019-03-18T13:55:18.053Z,100066.09
2019-03-18T13:58:21.367Z,100050.37
2019-03-18T14:01:24.668Z,100068.27
2019-03-18T14:04:27.981Z,100078.40
2019-03-18T14:07:31.318Z,100074.32
2019-03-18T14:10:34.646Z,100071.10
2019-03-18T14:13:37.938Z,100076.08
2019-03-18T14:16:41.249Z,100089.11
2019-03-18T14:19:44.551Z,100075.94
2019-03-18T14:22:47.887Z,100098.81
2019-03-18T14:25:51.310Z,100093.56
2019-03-18T14:28:54.607Z,100089.68
2019-03-18T14:31:58.770Z,100098.09
2019-03-18T14:35:02.086Z,100099.69
2019-03-18T14:38:05.393Z,100117.61
2019-03-18T14:41:08.745Z,100115.66
2019-03-18T14:44:12.065Z,100134.55
2019-03-18T14:47:15.394Z,100161.83
2019-03-18T14:50:19.395Z,100180.05
2019-03-18T14:53:22.703Z,100182.39
2019-03-18T14:56:26.028Z,100151.19
2019-03-18T14:59:29.346Z,100142.48
2019-03-18T15:02:32.639Z,100144.05
2019-03-18T15:05:37.076Z,100144.77
2019-03-18T15:08:40.456Z,100143.47
2019-03-18T15:11:43.815Z,100141.47
2019-03-18T15:14:47.240Z,100129.98
2019-03-18T15:17:50.607Z,100139.29
2019-03-18T15:20:53.911Z,100140.12
2019-03-18T15:23:57.272Z,100155.63
2019-03-18T15:27:13.942Z,100165.65
2019-03-18T15:30:20.740Z,100171.50
2019-03-18T15:33:24.043Z,100169.73
2019-03-18T15:36:27.339Z,100169.42
2019-03-18T15:39:30.653Z,100167.48
2019-03-18T15:42:34.021Z,100183.48
2019-03-18T15:45:37.390Z,100181.98
2019-03-18T15:48:40.731Z,100185.34
2019-03-18T15:51:43.986Z,100191.03
2019-03-18T15:54:53.746Z,100194.50
2019-03-18T15:57:52.425Z,100187.72
2019-03-18T16:00:55.758Z,100195.89
2019-03-18T16:03:59.082Z,100192.73
2019-03-18T16:07:07.991Z,100194.07
2019-03-18T16:10:18.200Z,100198.31
2019-03-18T16:13:21.498Z,100198.23
2019-03-18T16:16:24.822Z,100202.83
2019-03-18T16:19:28.147Z,100202.72
2019-03-18T16:22:31.445Z,100207.95
2019-03-18T16:25:34.806Z,100213.58
2019-03-18T16:28:38.155Z,100216.48
2019-03-18T16:31:41.487Z,100230.70
2019-03-18T16:34:44.867Z,100233.13
2019-03-18T16:37:48.177Z,100236.86
2019-03-18T16:40:51.478Z,100229.28
2019-03-18T16:43:54.801Z,100229.80
2019-03-18T16:46:58.140Z,100235.90
2019-03-18T16:50:01.479Z,100249.39
2019-03-18T16:53:04.805Z,100254.08
2019-03-18T16:56:08.132Z,100260.41
2019-03-18T16:59:11.419Z,100253.67
2019-03-18T17:02:14.727Z,100261.59
2019-03-18T17:05:18.037Z,100267.70
2019-03-18T17:08:21.341Z,100280.74
2019-03-18T17:11:24.667Z,100282.27
2019-03-18T17:14:27.970Z,100293.66
2019-03-18T17:17:31.283Z,100301.80
2019-03-18T17:20:34.599Z,100302.50
2019-03-18T17:23:37.895Z,100308.75
2019-03-18T17:26:41.238Z,100316.88
2019-03-18T17:29:44.558Z,100315.70
2019-03-18T17:32:47.886Z,100332.52
2019-03-18T17:35:51.193Z,100328.45
2019-03-18T17:38:54.526Z,100347.14
2019-03-18T17:41:57.857Z,100335.23
2019-03-18T17:45:01.157Z,100354.09
2019-03-18T17:48:04.484Z,100353.45
2019-03-18T17:51:07.786Z,100357.69
2019-03-18T17:54:11.108Z,100362.99
2019-03-18T17:57:14.437Z,100376.39
2019-03-18T18:00:34.998Z,100379.27
2019-03-18T18:03:38.403Z,100381.84
2019-03-18T18:06:41.734Z,100377.78
2019-03-18T18:09:45.083Z,100378.45
2019-03-18T18:12:48.409Z,100384.57
2019-03-18T18:15:51.736Z,100391.23
2019-03-18T18:18:55.078Z,100392.62
2019-03-18T18:21:58.430Z,100395.33
2019-03-18T18:25:01.780Z,100410.59
2019-03-18T18:28:05.108Z,100417.71
2019-03-18T18:31:08.418Z,100417.09
2019-03-18T18:34:11.774Z,100415.07
2019-03-18T18:37:15.158Z,100420.03
2019-03-18T18:40:20.821Z,100431.73
2019-03-18T18:43:24.189Z,100432.25
2019-03-18T18:46:27.498Z,100443.61
2019-03-18T18:49:30.819Z,100449.88
2019-03-18T18:52:34.137Z,100456.83
2019-03-18T18:55:37.475Z,100460.56
2019-03-18T18:58:40.881Z,100468.00
2019-03-18T19:01:44.190Z,100462.58
2019-03-18T19:04:47.530Z,100470.89
2019-03-18T19:07:50.840Z,100473.75
2019-03-18T19:10:54.876Z,100486.95
2019-03-18T19:13:58.274Z,100489.83
2019-03-18T19:17:02.027Z,100488.64
2019-03-18T19:20:09.151Z,100498.28
2019-03-18T19:23:13.320Z,100498.62
2019-03-18T19:26:17.075Z,100508.42
2019-03-18T19:29:21.252Z,100510.12
2019-03-18T19:32:27.302Z,100522.12
2019-03-18T19:35:31.592Z,100521.41
2019-03-18T19:38:34.923Z,100510.41
2019-03-18T19:41:40.193Z,100519.56
2019-03-18T19:44:43.274Z,100528.33
2019-03-18T19:47:46.579Z,100530.16
2019-03-18T19:50:49.909Z,100528.33
2019-03-18T19:53:53.221Z,100534.26
2019-03-18T19:56:56.580Z,100538.61
2019-03-18T20:00:08.954Z,100542.70
2019-03-18T20:03:11.997Z,100547.41
2019-03-18T20:06:15.419Z,100551.45
2019-03-18T20:09:18.866Z,100555.48
2019-03-18T20:12:22.262Z,100558.87
2019-03-18T20:15:25.668Z,100562.09
2019-03-18T20:18:29.012Z,100569.17
2019-03-18T20:21:32.674Z,100569.50
2019-03-18T20:24:36.046Z,100572.75
2019-03-18T20:27:39.378Z,100577.64
2019-03-18T20:30:42.826Z,100586.42
2019-03-18T20:33:46.121Z,100585.20
2019-03-18T20:36:49.467Z,100603.41
2019-03-18T20:39:52.881Z,100602.06
2019-03-18T20:42:56.230Z,100610.13
2019-03-18T20:45:59.560Z,100612.56
2019-03-18T20:49:02.952Z,100613.52
2019-03-18T20:52:16.406Z,100619.02
2019-03-18T20:55:11.487Z,100618.08
2019-03-18T20:58:14.839Z,100626.75
2019-03-18T21:01:18.160Z,100629.19
2019-03-18T21:04:21.511Z,100629.50
2019-03-18T21:07:24.848Z,100630.42
2019-03-18T21:10:28.210Z,100647.06
2019-03-18T21:13:31.586Z,100647.42
2019-03-18T21:16:34.990Z,100653.77
2019-03-18T21:19:38.305Z,100661.81
2019-03-18T21:22:41.734Z,100661.17
2019-03-18T21:25:45.031Z,100657.91
2019-03-18T21:28:49.352Z,100665.14
2019-03-18T21:31:52.702Z,100667.33
2019-03-18T21:34:56.028Z,100674.09
2019-03-18T21:37:59.366Z,100676.31
2019-03-18T21:41:02.692Z,100678.86
2019-03-18T21:44:06.042Z,100672.83
2019-03-18T21:47:09.420Z,100678.09
2019-03-18T21:50:14.253Z,100674.61
2019-03-18T21:53:17.577Z,100692.99
2019-03-18T21:56:20.878Z,100693.16
2019-03-18T21:59:24.225Z,100691.00
2019-03-18T22:02:27.565Z,100693.23
2019-03-18T22:05:30.893Z,100693.03
2019-03-18T22:08:34.285Z,100694.75
2019-03-18T22:11:37.636Z,100703.01
2019-03-18T22:14:40.961Z,100706.52
2019-03-18T22:17:44.289Z,100707.41
2019-03-18T22:20:47.608Z,100712.25
2019-03-18T22:23:50.923Z,100721.16
2019-03-18T22:26:54.260Z,100720.78
2019-03-18T22:29:57.583Z,100721.92
2019-03-18T22:33:00.920Z,100719.20
2019-03-18T22:36:04.258Z,100718.23
2019-03-18T22:39:08.618Z,100720.27
2019-03-18T22:42:11.966Z,100721.53
2019-03-18T22:45:17.486Z,100732.31
2019-03-18T22:48:20.828Z,100731.05
2019-03-18T22:51:24.130Z,100725.50
2019-03-18T22:54:27.453Z,100736.38
2019-03-18T22:57:30.810Z,100728.63
2019-03-18T23:00:35.790Z,100736.43
2019-03-18T23:03:39.120Z,100737.05
2019-03-18T23:06:42.408Z,100742.01
2019-03-18T23:09:45.736Z,100744.77
2019-03-18T23:12:49.093Z,100751.59
2019-03-18T23:15:52.370Z,100754.23
2019-03-18T23:18:55.712Z,100756.41
2019-03-18T23:21:59.106Z,100751.31
2019-03-18T23:25:06.951Z,100750.40
2019-03-18T23:28:07.422Z,100753.91
2019-03-18T23:31:10.758Z,100761.84
2019-03-18T23:34:14.109Z,100767.34
2019-03-18T23:37:17.418Z,100773.73
2019-03-18T23:40:20.785Z,100787.28
2019-03-18T23:43:24.137Z,100786.42
2019-03-18T23:46:27.489Z,100785.54
2019-03-18T23:49:30.834Z,100780.75
2019-03-18T23:52:34.162Z,100782.11
2019-03-18T23:55:37.491Z,100778.50
2019-03-18T23:58:40.814Z,100780.33
